sensor_id;sensor_type;location;lat;lon;timestamp;P1;durP1;ratioP1;P2;durP2;ratioP2
74102;SDS011;62853;46.166;3.640;2022-09-09T00:00:36;4.43;;;2.50;;
74102;SDS011;62853;46.166;3.640;2022-09-09T00:03:16;5.35;;;2.60;;
74102;SDS011;62853;46.166;3.640;2022-09-09T00:08:25;8.15;;;2.85;;
74102;SDS011;62853;46.166;3.640;2022-09-09T00:10:59;4.63;;;2.90;;
74102;SDS011;62853;46.166;3.640;2022-09-09T00:13:41;4.78;;;3.28;;
74102;SDS011;62853;46.166;3.640;2022-09-09T00:16:15;5.22;;;2.90;;
74102;SDS011;62853;46.166;3.640;2022-09-09T00:19:06;4.57;;;2.85;;
74102;SDS011;62853;46.166;3.640;2022-09-09T00:21:43;4.90;;;2.60;;
74102;SDS011;62853;46.166;3.640;2022-09-09T00:27:14;5.53;;;2.70;;
74102;SDS011;62853;46.166;3.640;2022-09-09T00:32:59;2.60;;;2.28;;
74102;SDS011;62853;46.166;3.640;2022-09-09T00:35:37;2.88;;;2.20;;
74102;SDS011;62853;46.166;3.640;2022-09-09T00:38:19;6.10;;;2.47;;
74102;SDS011;62853;46.166;3.640;2022-09-09T00:40:52;4.47;;;2.30;;
74102;SDS011;62853;46.166;3.640;2022-09-09T00:43:38;2.90;;;2.13;;
74102;SDS011;62853;46.166;3.640;2022-09-09T00:51:19;5.65;;;2.40;;
74102;SDS011;62853;46.166;3.640;2022-09-09T00:57:10;2.75;;;2.22;;
74102;SDS011;62853;46.166;3.640;2022-09-09T00:59:51;4.22;;;2.30;;
74102;SDS011;62853;46.166;3.640;2022-09-09T01:04:59;4.78;;;2.50;;
74102;SDS011;62853;46.166;3.640;2022-09-09T01:07:37;2.78;;;2.38;;
74102;SDS011;62853;46.166;3.640;2022-09-09T01:10:07;3.95;;;2.58;;
74102;SDS011;62853;46.166;3.640;2022-09-09T01:12:41;3.63;;;2.03;;
74102;SDS011;62853;46.166;3.640;2022-09-09T01:17:50;5.32;;;2.35;;
74102;SDS011;62853;46.166;3.640;2022-09-09T01:20:23;3.22;;;2.22;;
74102;SDS011;62853;46.166;3.640;2022-09-09T01:23:10;5.82;;;2.40;;
74102;SDS011;62853;46.166;3.640;2022-09-09T01:26:10;8.82;;;2.40;;
74102;SDS011;62853;46.166;3.640;2022-09-09T01:28:46;5.18;;;2.53;;
74102;SDS011;62853;46.166;3.640;2022-09-09T01:31:17;6.28;;;2.85;;
74102;SDS011;62853;46.166;3.640;2022-09-09T01:33:53;5.88;;;2.53;;
74102;SDS011;62853;46.166;3.640;2022-09-09T01:36:28;8.45;;;3.25;;
74102;SDS011;62853;46.166;3.640;2022-09-09T01:39:00;6.60;;;2.70;;
74102;SDS011;62853;46.166;3.640;2022-09-09T01:41:26;4.63;;;2.63;;
74102;SDS011;62853;46.166;3.640;2022-09-09T01:43:52;5.00;;;2.67;;
74102;SDS011;62853;46.166;3.640;2022-09-09T01:46:20;5.85;;;2.60;;
74102;SDS011;62853;46.166;3.640;2022-09-09T01:48:47;5.07;;;2.70;;
74102;SDS011;62853;46.166;3.640;2022-09-09T01:51:13;7.75;;;2.70;;
74102;SDS011;62853;46.166;3.640;2022-09-09T01:53:39;6.00;;;2.47;;
74102;SDS011;62853;46.166;3.640;2022-09-09T02:03:56;9.93;;;3.17;;
74102;SDS011;62853;46.166;3.640;2022-09-09T02:06:30;5.38;;;2.88;;
74102;SDS011;62853;46.166;3.640;2022-09-09T02:08:58;8.18;;;2.60;;
74102;SDS011;62853;46.166;3.640;2022-09-09T02:11:27;6.22;;;2.67;;
74102;SDS011;62853;46.166;3.640;2022-09-09T02:13:58;8.05;;;2.60;;
74102;SDS011;62853;46.166;3.640;2022-09-09T02:16:39;5.55;;;2.42;;
74102;SDS011;62853;46.166;3.640;2022-09-09T02:19:18;5.38;;;2.38;;
74102;SDS011;62853;46.166;3.640;2022-09-09T02:24:17;7.35;;;2.40;;
74102;SDS011;62853;46.166;3.640;2022-09-09T02:26:43;6.20;;;2.60;;
74102;SDS011;62853;46.166;3.640;2022-09-09T02:29:21;5.35;;;2.60;;
74102;SDS011;62853;46.166;3.640;2022-09-09T02:31:50;8.82;;;2.83;;
74102;SDS011;62853;46.166;3.640;2022-09-09T02:34:20;4.22;;;2.60;;
74102;SDS011;62853;46.166;3.640;2022-09-09T02:36:49;8.43;;;2.75;;
74102;SDS011;62853;46.166;3.640;2022-09-09T02:39:18;6.90;;;2.70;;
74102;SDS011;62853;46.166;3.640;2022-09-09T02:41:43;5.72;;;2.60;;
74102;SDS011;62853;46.166;3.640;2022-09-09T02:44:13;6.07;;;2.30;;
74102;SDS011;62853;46.166;3.640;2022-09-09T02:46:54;5.45;;;2.35;;
74102;SDS011;62853;46.166;3.640;2022-09-09T02:52:08;4.45;;;2.60;;
74102;SDS011;62853;46.166;3.640;2022-09-09T02:59:47;9.00;;;2.45;;
74102;SDS011;62853;46.166;3.640;2022-09-09T03:02:13;6.70;;;2.90;;
74102;SDS011;62853;46.166;3.640;2022-09-09T03:04:39;5.85;;;2.45;;
74102;SDS011;62853;46.166;3.640;2022-09-09T03:07:05;5.40;;;2.30;;
74102;SDS011;62853;46.166;3.640;2022-09-09T03:09:30;4.25;;;2.10;;
74102;SDS011;62853;46.166;3.640;2022-09-09T03:11:57;5.45;;;2.63;;
74102;SDS011;62853;46.166;3.640;2022-09-09T03:14:23;6.43;;;2.30;;
74102;SDS011;62853;46.166;3.640;2022-09-09T03:16:52;7.82;;;2.50;;
74102;SDS011;62853;46.166;3.640;2022-09-09T03:19:18;12.13;;;3.00;;
74102;SDS011;62853;46.166;3.640;2022-09-09T03:21:48;7.38;;;2.63;;
74102;SDS011;62853;46.166;3.640;2022-09-09T03:24:14;6.35;;;2.20;;
74102;SDS011;62853;46.166;3.640;2022-09-09T03:26:41;5.22;;;2.63;;
74102;SDS011;62853;46.166;3.640;2022-09-09T03:29:09;5.63;;;2.60;;
74102;SDS011;62853;46.166;3.640;2022-09-09T03:31:37;7.18;;;2.70;;
74102;SDS011;62853;46.166;3.640;2022-09-09T03:34:03;7.47;;;2.40;;
74102;SDS011;62853;46.166;3.640;2022-09-09T03:36:28;8.65;;;2.72;;
74102;SDS011;62853;46.166;3.640;2022-09-09T03:38:54;4.93;;;2.65;;
74102;SDS011;62853;46.166;3.640;2022-09-09T03:41:20;12.05;;;2.35;;
74102;SDS011;62853;46.166;3.640;2022-09-09T03:43:48;5.90;;;2.58;;
74102;SDS011;62853;46.166;3.640;2022-09-09T03:46:17;4.18;;;2.28;;
74102;SDS011;62853;46.166;3.640;2022-09-09T03:48:43;7.32;;;2.28;;
74102;SDS011;62853;46.166;3.640;2022-09-09T03:51:09;5.63;;;2.45;;
74102;SDS011;62853;46.166;3.640;2022-09-09T03:53:35;8.57;;;2.95;;
74102;SDS011;62853;46.166;3.640;2022-09-09T03:56:03;5.47;;;2.55;;
74102;SDS011;62853;46.166;3.640;2022-09-09T03:58:31;6.93;;;2.72;;
74102;SDS011;62853;46.166;3.640;2022-09-09T04:00:58;11.30;;;2.70;;
74102;SDS011;62853;46.166;3.640;2022-09-09T04:03:25;8.98;;;2.80;;
74102;SDS011;62853;46.166;3.640;2022-09-09T04:05:51;6.07;;;2.63;;
74102;SDS011;62853;46.166;3.640;2022-09-09T04:08:18;8.75;;;2.95;;
74102;SDS011;62853;46.166;3.640;2022-09-09T04:10:45;8.57;;;2.95;;
74102;SDS011;62853;46.166;3.640;2022-09-09T04:13:12;9.85;;;3.00;;
74102;SDS011;62853;46.166;3.640;2022-09-09T04:15:39;9.38;;;3.40;;
74102;SDS011;62853;46.166;3.640;2022-09-09T04:18:04;7.28;;;2.80;;
74102;SDS011;62853;46.166;3.640;2022-09-09T04:20:30;9.70;;;3.60;;
74102;SDS011;62853;46.166;3.640;2022-09-09T04:22:55;4.45;;;2.83;;
74102;SDS011;62853;46.166;3.640;2022-09-09T04:25:21;7.72;;;3.17;;
74102;SDS011;62853;46.166;3.640;2022-09-09T04:27:46;8.15;;;3.13;;
74102;SDS011;62853;46.166;3.640;2022-09-09T04:30:12;4.68;;;2.90;;
74102;SDS011;62853;46.166;3.640;2022-09-09T04:32:38;8.00;;;3.00;;
74102;SDS011;62853;46.166;3.640;2022-09-09T04:35:03;7.88;;;2.80;;
74102;SDS011;62853;46.166;3.640;2022-09-09T04:37:29;9.30;;;3.22;;
74102;SDS011;62853;46.166;3.640;2022-09-09T04:39:54;5.88;;;2.70;;
74102;SDS011;62853;46.166;3.640;2022-09-09T04:42:19;8.98;;;3.25;;
74102;SDS011;62853;46.166;3.640;2022-09-09T04:44:45;8.73;;;3.38;;
74102;SDS011;62853;46.166;3.640;2022-09-09T04:47:10;9.50;;;3.03;;
74102;SDS011;62853;46.166;3.640;2022-09-09T04:49:36;10.68;;;3.42;;
74102;SDS011;62853;46.166;3.640;2022-09-09T04:52:03;5.55;;;3.08;;
74102;SDS011;62853;46.166;3.640;2022-09-09T04:54:29;11.30;;;3.15;;
74102;SDS011;62853;46.166;3.640;2022-09-09T04:56:54;9.50;;;3.17;;
74102;SDS011;62853;46.166;3.640;2022-09-09T04:59:20;12.55;;;3.42;;
74102;SDS011;62853;46.166;3.640;2022-09-09T05:01:46;14.10;;;3.28;;
74102;SDS011;62853;46.166;3.640;2022-09-09T05:04:12;7.47;;;3.25;;
74102;SDS011;62853;46.166;3.640;2022-09-09T05:06:39;11.70;;;3.15;;
74102;SDS011;62853;46.166;3.640;2022-09-09T05:09:04;11.55;;;3.13;;
74102;SDS011;62853;46.166;3.640;2022-09-09T05:11:30;8.82;;;3.38;;
74102;SDS011;62853;46.166;3.640;2022-09-09T05:13:57;6.72;;;2.67;;
74102;SDS011;62853;46.166;3.640;2022-09-09T05:16:23;11.02;;;3.58;;
74102;SDS011;62853;46.166;3.640;2022-09-09T05:18:49;9.88;;;3.40;;
74102;SDS011;62853;46.166;3.640;2022-09-09T05:21:16;11.10;;;3.22;;
74102;SDS011;62853;46.166;3.640;2022-09-09T05:23:42;11.18;;;3.28;;
74102;SDS011;62853;46.166;3.640;2022-09-09T05:26:09;10.45;;;3.20;;
74102;SDS011;62853;46.166;3.640;2022-09-09T05:28:38;7.45;;;2.65;;
74102;SDS011;62853;46.166;3.640;2022-09-09T05:31:05;9.85;;;3.38;;
74102;SDS011;62853;46.166;3.640;2022-09-09T05:33:37;11.02;;;3.00;;
74102;SDS011;62853;46.166;3.640;2022-09-09T05:36:09;8.48;;;3.67;;
74102;SDS011;62853;46.166;3.640;2022-09-09T05:38:38;11.85;;;2.95;;
74102;SDS011;62853;46.166;3.640;2022-09-09T05:41:05;12.40;;;3.22;;
74102;SDS011;62853;46.166;3.640;2022-09-09T05:43:32;11.45;;;3.20;;
74102;SDS011;62853;46.166;3.640;2022-09-09T05:48:33;10.85;;;3.15;;
74102;SDS011;62853;46.166;3.640;2022-09-09T05:51:00;7.50;;;3.45;;
74102;SDS011;62853;46.166;3.640;2022-09-09T05:53:26;10.40;;;3.50;;
74102;SDS011;62853;46.166;3.640;2022-09-09T05:58:57;11.63;;;3.55;;
74102;SDS011;62853;46.166;3.640;2022-09-09T06:01:25;15.77;;;3.90;;
74102;SDS011;62853;46.166;3.640;2022-09-09T06:03:52;14.75;;;4.00;;
74102;SDS011;62853;46.166;3.640;2022-09-09T06:06:19;17.25;;;4.20;;
74102;SDS011;62853;46.166;3.640;2022-09-09T06:08:51;12.45;;;3.90;;
74102;SDS011;62853;46.166;3.640;2022-09-09T06:11:26;12.35;;;4.47;;
74102;SDS011;62853;46.166;3.640;2022-09-09T06:13:53;14.30;;;4.03;;
74102;SDS011;62853;46.166;3.640;2022-09-09T06:16:20;15.38;;;5.07;;
74102;SDS011;62853;46.166;3.640;2022-09-09T06:18:48;14.55;;;6.53;;
74102;SDS011;62853;46.166;3.640;2022-09-09T06:21:19;21.45;;;6.93;;
74102;SDS011;62853;46.166;3.640;2022-09-09T06:23:47;17.95;;;6.47;;
74102;SDS011;62853;46.166;3.640;2022-09-09T06:26:17;15.07;;;6.13;;
74102;SDS011;62853;46.166;3.640;2022-09-09T06:28:45;11.57;;;5.20;;
74102;SDS011;62853;46.166;3.640;2022-09-09T06:31:13;17.25;;;5.38;;
74102;SDS011;62853;46.166;3.640;2022-09-09T06:33:42;12.45;;;4.88;;
74102;SDS011;62853;46.166;3.640;2022-09-09T06:36:12;17.75;;;6.20;;
74102;SDS011;62853;46.166;3.640;2022-09-09T06:38:39;16.02;;;5.70;;
74102;SDS011;62853;46.166;3.640;2022-09-09T06:41:05;17.08;;;5.63;;
74102;SDS011;62853;46.166;3.640;2022-09-09T06:43:31;13.82;;;5.90;;
74102;SDS011;62853;46.166;3.640;2022-09-09T06:45:58;13.98;;;4.95;;
74102;SDS011;62853;46.166;3.640;2022-09-09T06:48:27;12.85;;;5.32;;
74102;SDS011;62853;46.166;3.640;2022-09-09T06:51:06;18.00;;;6.18;;
74102;SDS011;62853;46.166;3.640;2022-09-09T06:53:33;12.93;;;6.07;;
74102;SDS011;62853;46.166;3.640;2022-09-09T06:56:42;18.77;;;5.50;;
74102;SDS011;62853;46.166;3.640;2022-09-09T06:58:56;13.63;;;5.40;;
74102;SDS011;62853;46.166;3.640;2022-09-09T07:01:34;19.35;;;5.72;;
74102;SDS011;62853;46.166;3.640;2022-09-09T07:04:01;19.60;;;5.90;;
74102;SDS011;62853;46.166;3.640;2022-09-09T07:06:30;16.00;;;5.28;;
74102;SDS011;62853;46.166;3.640;2022-09-09T07:08:58;18.05;;;4.85;;
74102;SDS011;62853;46.166;3.640;2022-09-09T07:11:29;15.65;;;5.53;;
74102;SDS011;62853;46.166;3.640;2022-09-09T07:13:56;10.88;;;4.57;;
74102;SDS011;62853;46.166;3.640;2022-09-09T07:16:23;11.05;;;4.90;;
74102;SDS011;62853;46.166;3.640;2022-09-09T07:18:49;10.10;;;3.83;;
74102;SDS011;62853;46.166;3.640;2022-09-09T07:21:16;12.23;;;4.18;;
74102;SDS011;62853;46.166;3.640;2022-09-09T07:23:42;12.90;;;4.53;;
74102;SDS011;62853;46.166;3.640;2022-09-09T07:26:15;9.32;;;3.53;;
74102;SDS011;62853;46.166;3.640;2022-09-09T07:28:44;12.18;;;3.42;;
74102;SDS011;62853;46.166;3.640;2022-09-09T07:31:18;7.30;;;3.00;;
74102;SDS011;62853;46.166;3.640;2022-09-09T07:33:48;8.47;;;3.00;;
74102;SDS011;62853;46.166;3.640;2022-09-09T07:36:15;9.57;;;3.35;;
74102;SDS011;62853;46.166;3.640;2022-09-09T07:38:44;10.13;;;2.78;;
74102;SDS011;62853;46.166;3.640;2022-09-09T07:41:11;11.15;;;3.30;;
74102;SDS011;62853;46.166;3.640;2022-09-09T07:43:40;9.60;;;3.10;;
74102;SDS011;62853;46.166;3.640;2022-09-09T07:46:07;10.07;;;3.10;;
74102;SDS011;62853;46.166;3.640;2022-09-09T07:48:33;10.27;;;2.97;;
74102;SDS011;62853;46.166;3.640;2022-09-09T07:51:09;10.18;;;2.47;;
74102;SDS011;62853;46.166;3.640;2022-09-09T07:53:42;6.25;;;2.35;;
74102;SDS011;62853;46.166;3.640;2022-09-09T07:56:11;8.20;;;3.35;;
74102;SDS011;62853;46.166;3.640;2022-09-09T07:58:47;6.28;;;3.13;;
74102;SDS011;62853;46.166;3.640;2022-09-09T08:01:15;9.00;;;2.45;;
74102;SDS011;62853;46.166;3.640;2022-09-09T08:03:55;6.40;;;2.95;;
74102;SDS011;62853;46.166;3.640;2022-09-09T08:06:26;9.43;;;2.30;;
74102;SDS011;62853;46.166;3.640;2022-09-09T08:08:53;7.80;;;3.40;;
74102;SDS011;62853;46.166;3.640;2022-09-09T08:11:20;10.07;;;2.85;;
74102;SDS011;62853;46.166;3.640;2022-09-09T08:13:48;7.63;;;2.80;;
74102;SDS011;62853;46.166;3.640;2022-09-09T08:16:16;8.52;;;2.65;;
74102;SDS011;62853;46.166;3.640;2022-09-09T08:18:46;8.63;;;2.70;;
74102;SDS011;62853;46.166;3.640;2022-09-09T08:21:13;10.98;;;2.65;;
74102;SDS011;62853;46.166;3.640;2022-09-09T08:23:42;8.82;;;2.30;;
74102;SDS011;62853;46.166;3.640;2022-09-09T08:28:40;9.52;;;2.38;;
74102;SDS011;62853;46.166;3.640;2022-09-09T08:31:10;9.75;;;2.20;;
74102;SDS011;62853;46.166;3.640;2022-09-09T08:33:40;8.82;;;2.33;;
74102;SDS011;62853;46.166;3.640;2022-09-09T08:36:08;12.43;;;2.10;;
74102;SDS011;62853;46.166;3.640;2022-09-09T08:38:35;7.90;;;2.20;;
74102;SDS011;62853;46.166;3.640;2022-09-09T08:44:00;8.70;;;2.42;;
74102;SDS011;62853;46.166;3.640;2022-09-09T08:46:57;8.27;;;1.80;;
74102;SDS011;62853;46.166;3.640;2022-09-09T08:54:56;8.05;;;2.17;;
74102;SDS011;62853;46.166;3.640;2022-09-09T08:57:28;9.75;;;2.10;;
74102;SDS011;62853;46.166;3.640;2022-09-09T08:59:56;6.53;;;2.05;;
74102;SDS011;62853;46.166;3.640;2022-09-09T09:02:27;8.18;;;2.30;;
74102;SDS011;62853;46.166;3.640;2022-09-09T09:05:31;9.25;;;1.80;;
74102;SDS011;62853;46.166;3.640;2022-09-09T09:08:15;5.20;;;2.17;;
74102;SDS011;62853;46.166;3.640;2022-09-09T09:11:03;11.15;;;2.78;;
74102;SDS011;62853;46.166;3.640;2022-09-09T09:16:29;9.15;;;2.50;;
74102;SDS011;62853;46.166;3.640;2022-09-09T09:18:59;8.73;;;2.30;;
74102;SDS011;62853;46.166;3.640;2022-09-09T09:21:34;10.90;;;2.50;;
74102;SDS011;62853;46.166;3.640;2022-09-09T09:24:05;8.27;;;2.17;;
74102;SDS011;62853;46.166;3.640;2022-09-09T09:26:40;15.90;;;2.40;;
74102;SDS011;62853;46.166;3.640;2022-09-09T09:29:26;11.93;;;2.88;;
74102;SDS011;62853;46.166;3.640;2022-09-09T09:31:52;9.35;;;2.42;;
74102;SDS011;62853;46.166;3.640;2022-09-09T09:34:20;10.00;;;2.38;;
74102;SDS011;62853;46.166;3.640;2022-09-09T09:36:55;9.90;;;2.25;;
74102;SDS011;62853;46.166;3.640;2022-09-09T09:39:29;6.95;;;1.80;;
74102;SDS011;62853;46.166;3.640;2022-09-09T09:41:56;9.85;;;2.45;;
74102;SDS011;62853;46.166;3.640;2022-09-09T09:44:27;8.30;;;2.00;;
74102;SDS011;62853;46.166;3.640;2022-09-09T09:47:08;7.47;;;2.20;;
74102;SDS011;62853;46.166;3.640;2022-09-09T09:49:37;9.35;;;2.10;;
74102;SDS011;62853;46.166;3.640;2022-09-09T09:52:03;7.82;;;2.17;;
74102;SDS011;62853;46.166;3.640;2022-09-09T09:54:30;6.47;;;2.05;;
74102;SDS011;62853;46.166;3.640;2022-09-09T09:59:37;7.40;;;2.50;;
74102;SDS011;62853;46.166;3.640;2022-09-09T10:02:31;8.55;;;2.45;;
74102;SDS011;62853;46.166;3.640;2022-09-09T10:07:28;10.30;;;2.33;;
74102;SDS011;62853;46.166;3.640;2022-09-09T10:09:56;7.22;;;1.70;;
74102;SDS011;62853;46.166;3.640;2022-09-09T10:21:05;9.05;;;2.70;;
74102;SDS011;62853;46.166;3.640;2022-09-09T10:24:03;10.98;;;2.80;;
74102;SDS011;62853;46.166;3.640;2022-09-09T10:26:46;8.43;;;2.67;;
74102;SDS011;62853;46.166;3.640;2022-09-09T10:32:25;10.15;;;2.80;;
74102;SDS011;62853;46.166;3.640;2022-09-09T10:48:57;12.63;;;3.60;;
74102;SDS011;62853;46.166;3.640;2022-09-09T10:52:01;10.07;;;2.88;;
74102;SDS011;62853;46.166;3.640;2022-09-09T10:57:43;8.90;;;3.35;;
74102;SDS011;62853;46.166;3.640;2022-09-09T11:02:47;11.00;;;3.88;;
74102;SDS011;62853;46.166;3.640;2022-09-09T11:05:27;6.40;;;3.40;;
74102;SDS011;62853;46.166;3.640;2022-09-09T11:08:05;6.75;;;2.95;;
74102;SDS011;62853;46.166;3.640;2022-09-09T11:10:41;7.43;;;3.08;;
74102;SDS011;62853;46.166;3.640;2022-09-09T11:13:26;8.60;;;3.15;;
74102;SDS011;62853;46.166;3.640;2022-09-09T11:16:05;9.77;;;3.25;;
74102;SDS011;62853;46.166;3.640;2022-09-09T11:18:46;10.15;;;3.05;;
74102;SDS011;62853;46.166;3.640;2022-09-09T11:21:22;5.95;;;2.78;;
74102;SDS011;62853;46.166;3.640;2022-09-09T11:23:54;7.72;;;2.55;;
74102;SDS011;62853;46.166;3.640;2022-09-09T11:26:28;7.05;;;2.83;;
74102;SDS011;62853;46.166;3.640;2022-09-09T11:29:06;8.23;;;2.80;;
74102;SDS011;62853;46.166;3.640;2022-09-09T11:34:31;6.43;;;2.40;;
74102;SDS011;62853;46.166;3.640;2022-09-09T11:37:08;7.57;;;2.45;;
74102;SDS011;62853;46.166;3.640;2022-09-09T11:42:25;6.35;;;2.60;;
74102;SDS011;62853;46.166;3.640;2022-09-09T11:44:51;4.78;;;2.25;;
74102;SDS011;62853;46.166;3.640;2022-09-09T11:47:19;7.72;;;2.33;;
74102;SDS011;62853;46.166;3.640;2022-09-09T11:49:54;6.53;;;2.67;;
74102;SDS011;62853;46.166;3.640;2022-09-09T11:55:00;6.10;;;2.55;;
74102;SDS011;62853;46.166;3.640;2022-09-09T11:57:48;7.75;;;2.67;;
74102;SDS011;62853;46.166;3.640;2022-09-09T12:00:29;6.57;;;2.78;;
74102;SDS011;62853;46.166;3.640;2022-09-09T12:02:56;6.50;;;2.35;;
74102;SDS011;62853;46.166;3.640;2022-09-09T12:05:21;5.85;;;1.90;;
74102;SDS011;62853;46.166;3.640;2022-09-09T12:07:57;8.65;;;2.53;;
74102;SDS011;62853;46.166;3.640;2022-09-09T12:10:26;6.25;;;2.47;;
74102;SDS011;62853;46.166;3.640;2022-09-09T12:12:54;7.60;;;2.38;;
74102;SDS011;62853;46.166;3.640;2022-09-09T12:15:24;7.63;;;2.53;;
74102;SDS011;62853;46.166;3.640;2022-09-09T12:17:54;6.07;;;2.40;;
74102;SDS011;62853;46.166;3.640;2022-09-09T12:20:34;6.07;;;2.50;;
74102;SDS011;62853;46.166;3.640;2022-09-09T12:23:13;6.28;;;1.95;;
74102;SDS011;62853;46.166;3.640;2022-09-09T12:33:55;5.72;;;2.00;;
74102;SDS011;62853;46.166;3.640;2022-09-09T12:36:34;8.02;;;2.47;;
74102;SDS011;62853;46.166;3.640;2022-09-09T12:39:09;6.47;;;2.42;;
74102;SDS011;62853;46.166;3.640;2022-09-09T12:41:40;7.22;;;2.15;;
74102;SDS011;62853;46.166;3.640;2022-09-09T12:44:06;4.93;;;1.92;;
74102;SDS011;62853;46.166;3.640;2022-09-09T12:52:12;10.10;;;2.25;;
74102;SDS011;62853;46.166;3.640;2022-09-09T12:54:47;8.90;;;2.20;;
74102;SDS011;62853;46.166;3.640;2022-09-09T12:57:16;4.78;;;1.70;;
74102;SDS011;62853;46.166;3.640;2022-09-09T12:59:42;6.55;;;1.92;;
74102;SDS011;62853;46.166;3.640;2022-09-09T13:02:20;6.32;;;2.03;;
74102;SDS011;62853;46.166;3.640;2022-09-09T13:04:48;7.53;;;2.75;;
74102;SDS011;62853;46.166;3.640;2022-09-09T13:07:15;6.80;;;1.75;;
74102;SDS011;62853;46.166;3.640;2022-09-09T13:09:42;7.47;;;1.77;;
74102;SDS011;62853;46.166;3.640;2022-09-09T13:12:19;4.95;;;1.50;;
74102;SDS011;62853;46.166;3.640;2022-09-09T13:14:48;6.10;;;1.50;;
74102;SDS011;62853;46.166;3.640;2022-09-09T13:17:23;8.48;;;1.67;;
74102;SDS011;62853;46.166;3.640;2022-09-09T13:19:51;4.82;;;1.70;;
74102;SDS011;62853;46.166;3.640;2022-09-09T13:25:00;5.03;;;2.00;;
74102;SDS011;62853;46.166;3.640;2022-09-09T13:27:35;4.97;;;1.80;;
74102;SDS011;62853;46.166;3.640;2022-09-09T13:35:45;9.77;;;2.90;;
74102;SDS011;62853;46.166;3.640;2022-09-09T13:38:13;6.10;;;2.20;;
74102;SDS011;62853;46.166;3.640;2022-09-09T13:40:39;4.72;;;1.70;;
74102;SDS011;62853;46.166;3.640;2022-09-09T13:43:05;6.07;;;1.90;;
74102;SDS011;62853;46.166;3.640;2022-09-09T13:45:52;5.50;;;1.85;;
74102;SDS011;62853;46.166;3.640;2022-09-09T13:48:19;2.42;;;1.40;;
74102;SDS011;62853;46.166;3.640;2022-09-09T13:50:53;2.85;;;1.60;;
74102;SDS011;62853;46.166;3.640;2022-09-09T13:53:20;4.57;;;1.67;;
74102;SDS011;62853;46.166;3.640;2022-09-09T13:55:45;3.90;;;1.48;;
74102;SDS011;62853;46.166;3.640;2022-09-09T13:58:14;8.82;;;1.80;;
74102;SDS011;62853;46.166;3.640;2022-09-09T14:03:09;6.55;;;1.70;;
74102;SDS011;62853;46.166;3.640;2022-09-09T14:05:35;3.67;;;1.33;;
74102;SDS011;62853;46.166;3.640;2022-09-09T14:08:02;5.78;;;1.52;;
74102;SDS011;62853;46.166;3.640;2022-09-09T14:10:29;7.20;;;1.45;;
74102;SDS011;62853;46.166;3.640;2022-09-09T14:12:55;7.32;;;1.35;;
74102;SDS011;62853;46.166;3.640;2022-09-09T14:15:21;3.85;;;1.45;;
74102;SDS011;62853;46.166;3.640;2022-09-09T14:17:46;5.32;;;1.50;;
74102;SDS011;62853;46.166;3.640;2022-09-09T14:20:13;3.45;;;1.40;;
74102;SDS011;62853;46.166;3.640;2022-09-09T14:22:42;4.63;;;2.03;;
74102;SDS011;62853;46.166;3.640;2022-09-09T14:25:09;3.10;;;1.55;;
74102;SDS011;62853;46.166;3.640;2022-09-09T14:27:34;4.45;;;1.50;;
74102;SDS011;62853;46.166;3.640;2022-09-09T14:29:59;4.07;;;1.23;;
74102;SDS011;62853;46.166;3.640;2022-09-09T14:32:26;2.63;;;1.40;;
74102;SDS011;62853;46.166;3.640;2022-09-09T14:34:51;4.78;;;1.65;;
74102;SDS011;62853;46.166;3.640;2022-09-09T14:37:17;4.53;;;1.40;;
74102;SDS011;62853;46.166;3.640;2022-09-09T14:39:43;4.80;;;1.42;;
74102;SDS011;62853;46.166;3.640;2022-09-09T14:42:12;4.22;;;1.40;;
74102;SDS011;62853;46.166;3.640;2022-09-09T14:44:38;4.88;;;1.30;;
74102;SDS011;62853;46.166;3.640;2022-09-09T14:47:05;3.25;;;1.65;;
74102;SDS011;62853;46.166;3.640;2022-09-09T14:49:33;4.32;;;1.20;;
74102;SDS011;62853;46.166;3.640;2022-09-09T14:51:58;6.70;;;1.60;;
74102;SDS011;62853;46.166;3.640;2022-09-09T14:54:24;3.70;;;1.20;;
74102;SDS011;62853;46.166;3.640;2022-09-09T14:56:49;5.18;;;1.50;;
74102;SDS011;62853;46.166;3.640;2022-09-09T14:59:15;4.05;;;1.38;;
74102;SDS011;62853;46.166;3.640;2022-09-09T15:01:40;3.67;;;1.42;;
74102;SDS011;62853;46.166;3.640;2022-09-09T15:04:06;6.47;;;1.60;;
74102;SDS011;62853;46.166;3.640;2022-09-09T15:06:33;8.07;;;1.67;;
74102;SDS011;62853;46.166;3.640;2022-09-09T15:09:02;4.93;;;1.50;;
74102;SDS011;62853;46.166;3.640;2022-09-09T15:11:29;4.18;;;1.42;;
74102;SDS011;62853;46.166;3.640;2022-09-09T15:13:58;3.22;;;1.30;;
74102;SDS011;62853;46.166;3.640;2022-09-09T15:16:24;4.65;;;1.25;;
74102;SDS011;62853;46.166;3.640;2022-09-09T15:18:53;3.65;;;1.52;;
74102;SDS011;62853;46.166;3.640;2022-09-09T15:21:23;4.38;;;1.30;;
74102;SDS011;62853;46.166;3.640;2022-09-09T15:23:51;3.45;;;1.33;;
74102;SDS011;62853;46.166;3.640;2022-09-09T15:26:17;3.28;;;1.40;;
74102;SDS011;62853;46.166;3.640;2022-09-09T15:28:43;3.90;;;1.50;;
74102;SDS011;62853;46.166;3.640;2022-09-09T15:33:51;2.70;;;1.00;;
74102;SDS011;62853;46.166;3.640;2022-09-09T15:36:31;3.22;;;1.30;;
74102;SDS011;62853;46.166;3.640;2022-09-09T15:39:07;4.78;;;1.20;;
74102;SDS011;62853;46.166;3.640;2022-09-09T15:41:38;3.70;;;1.52;;
74102;SDS011;62853;46.166;3.640;2022-09-09T15:44:04;3.58;;;1.45;;
74102;SDS011;62853;46.166;3.640;2022-09-09T15:46:34;4.47;;;1.50;;
74102;SDS011;62853;46.166;3.640;2022-09-09T15:51:33;4.20;;;1.45;;
74102;SDS011;62853;46.166;3.640;2022-09-09T15:53:58;4.80;;;1.70;;
74102;SDS011;62853;46.166;3.640;2022-09-09T15:56:25;3.20;;;1.50;;
74102;SDS011;62853;46.166;3.640;2022-09-09T15:58:52;3.95;;;1.50;;
74102;SDS011;62853;46.166;3.640;2022-09-09T16:01:18;3.25;;;1.60;;
74102;SDS011;62853;46.166;3.640;2022-09-09T16:03:44;3.45;;;1.92;;
74102;SDS011;62853;46.166;3.640;2022-09-09T16:06:15;5.18;;;1.98;;
74102;SDS011;62853;46.166;3.640;2022-09-09T16:08:43;3.67;;;1.60;;
74102;SDS011;62853;46.166;3.640;2022-09-09T16:11:15;3.30;;;1.55;;
74102;SDS011;62853;46.166;3.640;2022-09-09T16:13:44;3.88;;;1.40;;
74102;SDS011;62853;46.166;3.640;2022-09-09T16:16:11;3.20;;;1.40;;
74102;SDS011;62853;46.166;3.640;2022-09-09T16:18:44;3.90;;;1.70;;
74102;SDS011;62853;46.166;3.640;2022-09-09T16:21:15;3.85;;;1.63;;
74102;SDS011;62853;46.166;3.640;2022-09-09T16:23:45;4.30;;;1.67;;
74102;SDS011;62853;46.166;3.640;2022-09-09T16:26:13;35.15;;;5.03;;
74102;SDS011;62853;46.166;3.640;2022-09-09T16:28:40;8.73;;;2.50;;
74102;SDS011;62853;46.166;3.640;2022-09-09T16:31:07;7.72;;;2.70;;
74102;SDS011;62853;46.166;3.640;2022-09-09T16:33:39;5.47;;;2.47;;
74102;SDS011;62853;46.166;3.640;2022-09-09T16:36:08;5.70;;;2.47;;
74102;SDS011;62853;46.166;3.640;2022-09-09T16:38:35;5.00;;;2.15;;
74102;SDS011;62853;46.166;3.640;2022-09-09T16:41:01;6.63;;;2.28;;
74102;SDS011;62853;46.166;3.640;2022-09-09T16:43:31;5.30;;;1.52;;
74102;SDS011;62853;46.166;3.640;2022-09-09T16:45:56;44.72;;;4.28;;
74102;SDS011;62853;46.166;3.640;2022-09-09T16:48:22;20.73;;;2.58;;
74102;SDS011;62853;46.166;3.640;2022-09-09T16:50:47;4.50;;;1.67;;
74102;SDS011;62853;46.166;3.640;2022-09-09T16:53:13;4.10;;;1.13;;
74102;SDS011;62853;46.166;3.640;2022-09-09T16:55:40;7.38;;;1.30;;
74102;SDS011;62853;46.166;3.640;2022-09-09T16:58:07;7.63;;;1.15;;
74102;SDS011;62853;46.166;3.640;2022-09-09T17:00:33;4.85;;;1.60;;
74102;SDS011;62853;46.166;3.640;2022-09-09T17:02:59;6.38;;;1.50;;
74102;SDS011;62853;46.166;3.640;2022-09-09T17:05:24;3.60;;;1.55;;
74102;SDS011;62853;46.166;3.640;2022-09-09T17:07:50;3.08;;;1.33;;
74102;SDS011;62853;46.166;3.640;2022-09-09T17:10:16;2.53;;;1.30;;
74102;SDS011;62853;46.166;3.640;2022-09-09T17:12:41;4.88;;;1.65;;
74102;SDS011;62853;46.166;3.640;2022-09-09T17:15:07;3.50;;;1.60;;
74102;SDS011;62853;46.166;3.640;2022-09-09T17:17:32;5.38;;;1.88;;